Big Brook, Canada
Current Conditions -  °F | °C
As of 11:00 PM on Wednesday 22 Oct 2014 (Local Time) from CYAY Reporting Station
Clear Clear  
Wind Chill: 25°   Ceiling: Unl
Heat Index: 34°   Visibility: 9mi
Dew Point: 32°   Wind: 12mph
Humidity: 93%   Direction: 230°SW
Pressure: 30.42"   Gusts: NA
Location:  51.51°N, 56.14°W
Report Text: CYAY 230100Z AUTO 23010KT 9SM CLR 01/00 A3042 RMK SLP304
Loading
Personal Weather Stations






























Interactive Weather Map
Tropical Storm Tracking
New forecast layout! Learn more

10-Day Weather Forecast

Advertisements
Track Severe Weather on mobile